Time;durP1;ratioP1;P1;durP2;ratioP2;P2;SDS_P1;SDS_P2;PMS_P1;PMS_P2;Temp;Humidity;BMP_temperature;BMP_pressure;BME280_temperature;BME280_humidity;BME280_pressure;Samples;Min_cycle;Max_cycle;Signal;HPM_P1;HPM_P2
2022/03/08 00:00:25;;;;;;;5.28;1.25;;;17.80;32.90;;;;;;5098604;28;20024;-50
2022/03/08 00:02:51;;;;;;;2.10;1.13;;;17.80;33.00;;;;;;5097805;28;20040;-53
2022/03/08 00:05:18;;;;;;;1.33;1.10;;;17.80;33.00;;;;;;5096763;28;20020;-52
2022/03/08 00:07:46;;;;;;;1.10;1.00;;;17.70;33.00;;;;;;5097772;28;20020;-52
2022/03/08 00:10:12;;;;;;;2.28;1.27;;;17.70;33.00;;;;;;5097535;28;20099;-53
2022/03/08 00:12:38;;;;;;;4.03;1.40;;;17.70;33.00;;;;;;5097431;28;20091;-52
2022/03/08 00:15:10;;;;;;;1.55;1.25;;;17.70;33.00;;;;;;5097367;28;20435;-54
2022/03/08 00:17:36;;;;;;;3.13;1.17;;;17.70;33.00;;;;;;5095651;28;20024;-53
2022/03/08 00:20:03;;;;;;;1.20;0.98;;;17.70;33.00;;;;;;5096573;28;20044;-51
2022/03/08 00:22:29;;;;;;;1.23;1.13;;;17.70;33.00;;;;;;5097334;28;20016;-53
2022/03/08 00:24:55;;;;;;;2.30;1.17;;;17.70;33.00;;;;;;5096618;28;20028;-50
2022/03/08 00:27:21;;;;;;;2.78;1.40;;;17.70;33.10;;;;;;5095471;28;20024;-52
2022/03/08 00:29:47;;;;;;;1.58;1.25;;;17.70;33.10;;;;;;5096852;28;20056;-54
2022/03/08 00:32:12;;;;;;;2.38;1.30;;;17.60;33.10;;;;;;5096709;28;20141;-51
2022/03/08 00:34:39;;;;;;;1.85;1.30;;;17.70;33.10;;;;;;5096650;28;20096;-51
2022/03/08 00:37:04;;;;;;;1.42;1.13;;;17.70;33.20;;;;;;5096022;28;20495;-50
2022/03/08 00:39:30;;;;;;;1.67;1.40;;;17.60;33.10;;;;;;5098422;28;20064;-54
2022/03/08 00:41:57;;;;;;;1.30;0.95;;;17.60;33.10;;;;;;5097598;28;20016;-52
2022/03/08 00:44:22;;;;;;;1.60;1.20;;;17.60;33.10;;;;;;5098058;28;20016;-53
2022/03/08 00:46:48;;;;;;;1.38;1.25;;;17.60;33.10;;;;;;5096309;28;20429;-52
2022/03/08 00:49:14;;;;;;;1.33;1.23;;;17.60;33.20;;;;;;5096166;28;20016;-51
2022/03/08 00:51:39;;;;;;;2.50;1.50;;;17.60;33.20;;;;;;5094932;28;20028;-49
2022/03/08 00:54:05;;;;;;;1.58;1.20;;;17.50;33.10;;;;;;5095324;28;20070;-51
2022/03/08 00:56:32;;;;;;;1.20;1.10;;;17.60;33.10;;;;;;5096724;28;20061;-52
2022/03/08 00:58:58;;;;;;;1.67;1.40;;;17.50;33.20;;;;;;5096049;28;20046;-50
2022/03/08 01:01:24;;;;;;;1.75;1.20;;;17.50;33.20;;;;;;5096379;28;20052;-52
2022/03/08 01:03:49;;;;;;;1.65;1.23;;;17.60;33.30;;;;;;5095582;28;20058;-52
2022/03/08 01:06:15;;;;;;;2.03;1.45;;;17.50;33.30;;;;;;5097249;28;20036;-52
2022/03/08 01:08:42;;;;;;;2.35;1.25;;;17.50;33.30;;;;;;5096297;28;20038;-53
2022/03/08 01:11:08;;;;;;;1.35;1.13;;;17.50;33.20;;;;;;5095816;28;20040;-52
2022/03/08 01:13:33;;;;;;;2.17;1.20;;;17.50;33.30;;;;;;5095400;28;20066;-53
2022/03/08 01:16:00;;;;;;;3.45;1.17;;;17.50;33.30;;;;;;5094319;28;20542;-49
2022/03/08 01:18:25;;;;;;;2.28;1.50;;;17.50;33.30;;;;;;5095433;28;20044;-51
2022/03/08 01:20:51;;;;;;;1.65;1.20;;;17.50;33.30;;;;;;5094038;28;20062;-49
2022/03/08 01:23:17;;;;;;;1.45;1.20;;;17.50;33.40;;;;;;5095603;28;20016;-49
2022/03/08 01:25:43;;;;;;;1.60;1.40;;;17.50;33.40;;;;;;5095923;28;20020;-48
2022/03/08 01:28:09;;;;;;;1.42;1.33;;;17.50;33.40;;;;;;5096135;28;20009;-49
2022/03/08 01:30:35;;;;;;;1.80;1.55;;;17.50;33.30;;;;;;5095286;28;20023;-52
2022/03/08 01:33:01;;;;;;;1.58;1.30;;;17.40;33.40;;;;;;5095291;28;20478;-51
2022/03/08 01:35:27;;;;;;;1.70;1.27;;;17.40;33.30;;;;;;5094121;28;20016;-49
2022/03/08 01:37:54;;;;;;;1.77;1.40;;;17.40;33.30;;;;;;5095052;28;20501;-50
2022/03/08 01:40:20;;;;;;;1.38;1.23;;;17.40;33.40;;;;;;5095463;28;20121;-51
2022/03/08 01:42:48;;;;;;;2.05;1.40;;;17.40;33.40;;;;;;5095777;28;20470;-50
2022/03/08 01:45:18;;;;;;;2.10;1.58;;;17.40;33.40;;;;;;5095875;28;20020;-51
2022/03/08 01:47:44;;;;;;;1.90;1.38;;;17.40;33.50;;;;;;5095639;28;20008;-52
2022/03/08 01:50:11;;;;;;;2.53;1.40;;;17.40;33.50;;;;;;5095329;28;20018;-51
2022/03/08 01:52:38;;;;;;;1.65;1.38;;;17.40;33.50;;;;;;5095541;28;20020;-48
2022/03/08 01:55:05;;;;;;;1.48;1.38;;;17.40;33.50;;;;;;5093757;28;20375;-51
2022/03/08 01:57:30;;;;;;;2.42;1.58;;;17.40;33.50;;;;;;5095427;28;20062;-51
2022/03/08 01:59:56;;;;;;;2.05;1.50;;;17.40;33.50;;;;;;5094987;28;20019;-50
2022/03/08 02:02:22;;;;;;;3.08;1.20;;;17.30;33.50;;;;;;5094746;28;20016;-47
2022/03/08 02:04:49;;;;;;;2.00;1.45;;;17.30;33.50;;;;;;5094501;28;20059;-47
2022/03/08 02:07:15;;;;;;;1.40;1.17;;;17.30;33.50;;;;;;5095652;28;20559;-46
2022/03/08 02:09:41;;;;;;;2.65;1.50;;;17.30;33.60;;;;;;5094723;28;20012;-49
2022/03/08 02:12:10;;;;;;;2.08;1.35;;;17.30;33.40;;;;;;5075062;28;20110;-47
2022/03/08 02:14:36;;;;;;;1.90;1.35;;;17.30;33.60;;;;;;5094214;28;20494;-51
2022/03/08 02:17:02;;;;;;;1.35;1.15;;;17.30;33.50;;;;;;5095429;28;20012;-51
2022/03/08 02:19:27;;;;;;;1.63;1.40;;;17.30;33.50;;;;;;5094390;28;20028;-50
2022/03/08 02:21:54;;;;;;;1.83;1.65;;;17.30;33.50;;;;;;5094667;28;20034;-51
2022/03/08 02:24:20;;;;;;;1.63;1.42;;;17.30;33.50;;;;;;5095372;28;20100;-47
2022/03/08 02:26:46;;;;;;;1.83;1.52;;;17.20;33.60;;;;;;5095010;28;20035;-51
2022/03/08 02:29:12;;;;;;;1.80;1.40;;;17.20;33.50;;;;;;5094897;28;20092;-50
2022/03/08 02:31:38;;;;;;;2.05;1.60;;;17.30;33.40;;;;;;5093923;28;20036;-48
2022/03/08 02:34:04;;;;;;;2.05;1.40;;;17.30;33.60;;;;;;5094390;28;20463;-52
2022/03/08 02:36:30;;;;;;;1.45;1.30;;;17.20;33.60;;;;;;5094143;28;20023;-52
2022/03/08 02:38:56;;;;;;;1.98;1.63;;;17.20;33.60;;;;;;5094258;28;20016;-51
2022/03/08 02:41:22;;;;;;;1.58;1.40;;;17.20;33.60;;;;;;5092896;28;20031;-50
2022/03/08 02:43:48;;;;;;;2.00;1.65;;;17.20;33.60;;;;;;5094045;28;20379;-51
2022/03/08 02:46:14;;;;;;;1.70;1.50;;;17.20;33.60;;;;;;5093744;28;20032;-52
2022/03/08 02:48:40;;;;;;;1.67;1.45;;;17.20;33.60;;;;;;5092355;28;20017;-48
2022/03/08 02:51:05;;;;;;;1.83;1.50;;;17.20;33.60;;;;;;5092584;28;20023;-51
2022/03/08 02:53:32;;;;;;;1.50;1.20;;;17.20;33.70;;;;;;5093797;28;20012;-50
2022/03/08 02:55:57;;;;;;;3.00;1.52;;;17.20;33.60;;;;;;5093987;28;20012;-51
2022/03/08 02:58:23;;;;;;;2.05;1.30;;;17.20;33.70;;;;;;5093932;28;20036;-50
2022/03/08 03:00:49;;;;;;;2.00;1.60;;;17.20;33.70;;;;;;5092253;28;20124;-50
2022/03/08 03:03:17;;;;;;;1.90;1.45;;;17.20;33.70;;;;;;5093343;28;20482;-47
2022/03/08 03:05:43;;;;;;;2.28;1.80;;;17.10;33.60;;;;;;5093426;28;20473;-49
2022/03/08 03:08:09;;;;;;;2.33;1.70;;;17.10;33.50;;;;;;5093170;28;20174;-51
2022/03/08 03:10:35;;;;;;;2.63;1.48;;;17.10;33.70;;;;;;5094840;28;20122;-51
2022/03/08 03:13:01;;;;;;;2.50;1.63;;;17.10;33.70;;;;;;5094154;28;20100;-49
2022/03/08 03:15:29;;;;;;;1.67;1.58;;;17.10;33.80;;;;;;5094298;28;20584;-52
2022/03/08 03:17:55;;;;;;;1.98;1.60;;;17.10;33.70;;;;;;5094074;28;20028;-49
2022/03/08 03:20:22;;;;;;;3.15;1.80;;;17.10;33.50;;;;;;5075944;28;20039;-51
2022/03/08 03:22:48;;;;;;;2.30;1.70;;;17.10;33.70;;;;;;5093455;28;20016;-51
2022/03/08 03:25:14;;;;;;;2.65;1.60;;;17.10;33.70;;;;;;5093433;28;20024;-50
2022/03/08 03:27:40;;;;;;;2.03;1.60;;;17.10;33.70;;;;;;5093857;28;20012;-51
2022/03/08 03:30:11;;;;;;;2.22;1.48;;;17.10;33.60;;;;;;5093494;28;20051;-49
2022/03/08 03:32:37;;;;;;;1.92;1.60;;;17.10;33.70;;;;;;5093675;28;20008;-50
2022/03/08 03:35:04;;;;;;;2.03;1.60;;;17.10;33.70;;;;;;5091951;28;20553;-48
2022/03/08 03:37:29;;;;;;;1.85;1.65;;;17.00;33.60;;;;;;5091716;28;20059;-49
2022/03/08 03:39:55;;;;;;;1.58;1.48;;;17.00;33.70;;;;;;5093139;28;20047;-46
2022/03/08 03:42:21;;;;;;;1.70;1.50;;;17.00;33.70;;;;;;5093098;28;20009;-46
2022/03/08 03:44:47;;;;;;;2.17;1.60;;;17.00;33.70;;;;;;5091593;28;20027;-46
2022/03/08 03:47:12;;;;;;;1.63;1.30;;;17.00;33.70;;;;;;5092835;28;20367;-49
2022/03/08 03:49:39;;;;;;;1.50;1.40;;;17.00;33.70;;;;;;5092944;28;20475;-47
2022/03/08 03:52:05;;;;;;;2.50;1.50;;;17.00;33.80;;;;;;5092630;28;20028;-47
2022/03/08 03:54:31;;;;;;;2.03;1.67;;;17.00;33.80;;;;;;5093737;28;20020;-50
2022/03/08 03:56:57;;;;;;;2.00;1.70;;;17.00;33.70;;;;;;5093237;28;20016;-47
2022/03/08 03:59:23;;;;;;;1.50;1.40;;;17.00;33.70;;;;;;5093282;28;20032;-46
2022/03/08 04:01:49;;;;;;;2.05;1.65;;;17.00;33.80;;;;;;5093020;28;20012;-49
2022/03/08 04:04:14;;;;;;;2.72;1.65;;;17.00;33.70;;;;;;5091771;28;20475;-49
2022/03/08 04:06:41;;;;;;;1.75;1.23;;;17.00;33.80;;;;;;5092830;28;20028;-51
2022/03/08 04:09:07;;;;;;;1.88;1.50;;;16.90;33.80;;;;;;5093149;28;20019;-46
2022/03/08 04:11:33;;;;;;;2.70;1.70;;;17.00;33.80;;;;;;5093129;28;20382;-47
2022/03/08 04:13:59;;;;;;;2.65;1.83;;;17.00;33.70;;;;;;5092123;28;20456;-48
2022/03/08 04:16:24;;;;;;;2.30;1.45;;;16.90;33.80;;;;;;5093451;28;20095;-47
2022/03/08 04:18:50;;;;;;;1.92;1.70;;;16.90;33.70;;;;;;5093257;28;20071;-50
2022/03/08 04:21:15;;;;;;;2.35;1.70;;;16.90;33.80;;;;;;5092310;28;20071;-48
2022/03/08 04:23:42;;;;;;;2.25;1.80;;;16.90;33.80;;;;;;5093320;28;20069;-46
2022/03/08 04:26:07;;;;;;;1.77;1.60;;;16.90;33.70;;;;;;5093072;28;20368;-50
2022/03/08 04:28:33;;;;;;;2.17;1.63;;;16.90;33.90;;;;;;5093320;28;20027;-49
2022/03/08 04:30:59;;;;;;;2.72;1.67;;;16.90;33.80;;;;;;5093773;28;20099;-49
2022/03/08 04:33:25;;;;;;;1.67;1.58;;;16.90;33.90;;;;;;5094976;28;20028;-50
2022/03/08 04:35:51;;;;;;;1.65;1.50;;;16.90;34.00;;;;;;5095879;28;20104;-46
2022/03/08 04:38:16;;;;;;;2.38;1.85;;;16.90;33.90;;;;;;5097460;28;20016;-47
2022/03/08 04:40:43;;;;;;;1.88;1.60;;;16.80;33.90;;;;;;5097123;28;20028;-50
2022/03/08 04:43:09;;;;;;;2.17;1.67;;;16.80;34.00;;;;;;5096594;28;20462;-48
2022/03/08 04:45:35;;;;;;;2.38;1.70;;;16.80;33.80;;;;;;5096465;28;20044;-49
2022/03/08 04:48:01;;;;;;;1.92;1.73;;;16.90;33.90;;;;;;5096962;28;20486;-49
2022/03/08 04:50:27;;;;;;;1.77;1.52;;;16.90;33.90;;;;;;5096598;28;20524;-49
2022/03/08 04:52:52;;;;;;;2.70;2.00;;;16.90;33.80;;;;;;5094932;28;20010;-49
2022/03/08 04:55:19;;;;;;;2.35;1.55;;;16.90;33.90;;;;;;5078602;28;20016;-50
2022/03/08 04:57:45;;;;;;;1.73;1.60;;;17.00;33.80;;;;;;5096012;28;20012;-46
2022/03/08 05:00:11;;;;;;;2.15;1.63;;;17.00;33.50;;;;;;5096407;28;20012;-47
2022/03/08 05:02:38;;;;;;;3.95;2.00;;;17.20;33.40;;;;;;5096130;28;20020;-50
2022/03/08 05:05:06;;;;;;;1.70;1.60;;;17.30;33.30;;;;;;5096232;28;20107;-51
2022/03/08 05:07:31;;;;;;;2.08;1.63;;;17.40;33.10;;;;;;5096461;28;20008;-50
2022/03/08 05:09:58;;;;;;;2.20;1.75;;;17.40;33.00;;;;;;5096079;28;20012;-50
2022/03/08 05:12:23;;;;;;;2.33;1.67;;;17.50;32.90;;;;;;5096048;28;20012;-49
2022/03/08 05:14:50;;;;;;;1.77;1.67;;;17.50;32.90;;;;;;5095796;28;20019;-49
2022/03/08 05:17:16;;;;;;;1.90;1.60;;;17.60;32.70;;;;;;5095648;28;20024;-48
2022/03/08 05:19:42;;;;;;;1.73;1.63;;;17.70;32.60;;;;;;5096115;28;20040;-46
2022/03/08 05:22:07;;;;;;;2.30;1.73;;;17.80;32.40;;;;;;5094498;28;20522;-48
2022/03/08 05:24:33;;;;;;;2.75;1.90;;;17.90;32.20;;;;;;5094286;28;20028;-46
2022/03/08 05:27:00;;;;;;;2.47;1.77;;;18.00;32.20;;;;;;5095699;28;20030;-50
2022/03/08 05:29:26;;;;;;;2.42;1.80;;;18.10;32.10;;;;;;5094292;28;20016;-49
2022/03/08 05:31:52;;;;;;;2.47;1.85;;;18.20;32.00;;;;;;5095390;28;20374;-48
2022/03/08 05:34:18;;;;;;;2.90;1.80;;;18.20;31.90;;;;;;5094149;28;20008;-52
2022/03/08 05:36:44;;;;;;;2.38;1.63;;;18.30;31.70;;;;;;5095500;28;20031;-50
2022/03/08 05:39:10;;;;;;;1.67;1.40;;;18.40;31.60;;;;;;5095497;28;20027;-52
2022/03/08 05:41:36;;;;;;;2.38;1.92;;;18.50;31.50;;;;;;5095016;28;20471;-51
2022/03/08 05:44:02;;;;;;;2.35;1.80;;;18.60;31.40;;;;;;5093751;28;20021;-50
2022/03/08 05:46:28;;;;;;;1.98;1.77;;;18.70;31.30;;;;;;5093409;28;20039;-48
2022/03/08 05:48:54;;;;;;;2.13;1.90;;;18.80;31.20;;;;;;5094784;28;20025;-49
2022/03/08 05:51:20;;;;;;;3.67;1.77;;;18.80;31.00;;;;;;5094074;28;20023;-49
2022/03/08 05:53:46;;;;;;;4.00;1.50;;;18.90;31.00;;;;;;5094041;28;20070;-48
2022/03/08 05:56:12;;;;;;;2.33;1.70;;;18.90;30.90;;;;;;5094846;28;20443;-47
2022/03/08 05:58:38;;;;;;;2.45;1.70;;;19.00;30.80;;;;;;5094778;28;20441;-47
2022/03/08 06:01:04;;;;;;;2.60;1.88;;;19.10;30.70;;;;;;5076685;28;20020;-52
2022/03/08 06:03:31;;;;;;;2.10;1.80;;;19.20;30.70;;;;;;5094528;28;20032;-47
2022/03/08 06:05:57;;;;;;;1.98;1.60;;;19.20;30.60;;;;;;5093369;28;20028;-48
2022/03/08 06:08:23;;;;;;;2.33;1.70;;;19.30;30.50;;;;;;5095756;28;20027;-50
2022/03/08 06:10:49;;;;;;;3.33;1.45;;;19.30;30.40;;;;;;5094376;28;20419;-50
2022/03/08 06:13:15;;;;;;;1.50;1.40;;;19.50;30.30;;;;;;5094510;28;20012;-51
2022/03/08 06:15:42;;;;;;;1.80;1.70;;;19.50;30.20;;;;;;5094665;28;20023;-51
2022/03/08 06:18:08;;;;;;;3.78;1.70;;;19.60;30.20;;;;;;5093357;28;20040;-49
2022/03/08 06:20:33;;;;;;;1.88;1.60;;;19.60;30.10;;;;;;5092812;28;20517;-49
2022/03/08 06:22:59;;;;;;;2.10;1.67;;;19.70;30.00;;;;;;5093155;28;20471;-51
2022/03/08 06:25:25;;;;;;;3.28;1.67;;;19.70;30.00;;;;;;5093890;28;20055;-51
2022/03/08 06:27:52;;;;;;;2.42;1.63;;;19.80;30.00;;;;;;5095126;28;20036;-48
2022/03/08 06:30:18;;;;;;;3.33;1.70;;;19.90;30.00;;;;;;5094731;28;20019;-51
2022/03/08 06:32:44;;;;;;;2.30;1.80;;;19.90;29.80;;;;;;5094061;28;20009;-48
2022/03/08 06:35:10;;;;;;;2.20;1.60;;;20.00;29.80;;;;;;5092890;28;20024;-47
2022/03/08 06:37:36;;;;;;;1.77;1.67;;;20.00;29.80;;;;;;5094075;28;20014;-52
2022/03/08 06:40:03;;;;;;;2.03;1.58;;;20.10;29.80;;;;;;5092556;28;20111;-49
2022/03/08 06:42:29;;;;;;;2.13;1.70;;;20.10;29.70;;;;;;5094266;28;20012;-52
2022/03/08 06:44:55;;;;;;;2.30;1.77;;;20.20;29.60;;;;;;5093827;28;20058;-49
2022/03/08 06:47:21;;;;;;;2.45;1.70;;;20.30;30.00;;;;;;5092386;28;20037;-47
2022/03/08 06:49:47;;;;;;;1.80;1.50;;;20.40;29.60;;;;;;5093624;28;20020;-50
2022/03/08 06:52:13;;;;;;;1.63;1.52;;;20.40;29.50;;;;;;5092815;28;20024;-51
2022/03/08 06:54:40;;;;;;;1.92;1.67;;;20.40;29.50;;;;;;5093936;28;20106;-52
2022/03/08 06:57:05;;;;;;;1.55;1.45;;;20.50;29.50;;;;;;5093209;28;20016;-53
2022/03/08 06:59:31;;;;;;;2.40;1.65;;;20.60;29.40;;;;;;5093645;28;20020;-53
2022/03/08 07:01:57;;;;;;;2.33;1.60;;;20.70;29.40;;;;;;5093526;28;20349;-50
2022/03/08 07:04:23;;;;;;;2.58;1.80;;;20.70;29.40;;;;;;5093712;28;20020;-54
2022/03/08 07:06:49;;;;;;;1.60;1.42;;;20.70;29.30;;;;;;5092339;28;20020;-53
2022/03/08 07:09:15;;;;;;;1.83;1.60;;;20.80;29.30;;;;;;5093561;28;20019;-55
2022/03/08 07:11:42;;;;;;;1.67;1.58;;;20.80;29.20;;;;;;5092572;28;20463;-53
2022/03/08 07:14:08;;;;;;;3.25;1.80;;;20.90;29.20;;;;;;5092253;28;20004;-53
2022/03/08 07:16:33;;;;;;;2.22;1.50;;;21.00;29.10;;;;;;5075196;28;20103;-54
2022/03/08 07:19:00;;;;;;;1.88;1.60;;;21.00;29.10;;;;;;5074351;28;20052;-54
2022/03/08 07:21:32;;;;;;;2.00;1.70;;;21.10;29.10;;;;;;5090360;28;20024;-52
2022/03/08 07:23:58;;;;;;;2.15;1.80;;;21.10;29.10;;;;;;5090301;28;20020;-51
2022/03/08 07:26:26;;;;;;;1.83;1.70;;;21.10;29.00;;;;;;5073921;28;20101;-49
2022/03/08 07:28:52;;;;;;;2.35;1.80;;;21.10;29.00;;;;;;5090816;28;20024;-54
2022/03/08 07:31:20;;;;;;;1.98;1.67;;;21.10;29.00;;;;;;5092345;28;20351;-51
2022/03/08 07:33:46;;;;;;;2.67;1.90;;;21.10;29.00;;;;;;5090976;28;20012;-54
2022/03/08 07:36:12;;;;;;;2.08;1.88;;;21.10;28.90;;;;;;5092308;28;20031;-52
2022/03/08 07:38:38;;;;;;;2.13;1.60;;;21.20;28.80;;;;;;5091198;28;20027;-55
2022/03/08 07:41:05;;;;;;;2.45;1.63;;;21.20;28.80;;;;;;5091988;28;20020;-56
2022/03/08 07:43:31;;;;;;;3.15;1.45;;;21.30;28.80;;;;;;5091878;28;20035;-55
2022/03/08 07:45:56;;;;;;;1.83;1.60;;;21.30;28.80;;;;;;5091243;28;20046;-55
2022/03/08 07:48:24;;;;;;;4.45;2.08;;;21.30;28.80;;;;;;5090970;28;20095;-55
2022/03/08 07:50:50;;;;;;;3.13;1.83;;;21.30;28.70;;;;;;5092095;28;20024;-53
2022/03/08 07:53:16;;;;;;;1.88;1.55;;;21.40;28.70;;;;;;5090846;28;20031;-53
2022/03/08 07:55:42;;;;;;;1.73;1.50;;;21.50;28.70;;;;;;5091727;28;20020;-54
2022/03/08 07:58:13;;;;;;;2.08;1.80;;;21.50;28.60;;;;;;5091252;28;20031;-55
2022/03/08 08:00:39;;;;;;;2.60;1.67;;;21.60;28.70;;;;;;5091738;28;20012;-54
2022/03/08 08:03:05;;;;;;;1.92;1.60;;;21.50;28.60;;;;;;5091785;28;20012;-54
2022/03/08 08:05:36;;;;;;;2.17;1.50;;;21.50;28.70;;;;;;5091839;28;20068;-55
2022/03/08 08:08:02;;;;;;;2.42;1.70;;;21.50;28.70;;;;;;5091420;28;20107;-53
2022/03/08 08:10:28;;;;;;;2.65;1.60;;;21.50;28.70;;;;;;5093104;28;20455;-52
2022/03/08 08:12:54;;;;;;;2.85;1.83;;;21.50;28.70;;;;;;5094619;28;20489;-51
2022/03/08 08:15:20;;;;;;;5.85;1.88;;;21.50;28.60;;;;;;5077536;28;20020;-53
2022/03/08 08:17:47;;;;;;;4.00;2.10;;;21.60;28.70;;;;;;5095373;28;20024;-52
2022/03/08 08:20:12;;;;;;;9.55;3.30;;;21.60;28.50;;;;;;5093977;28;20044;-53
2022/03/08 08:22:38;;;;;;;11.40;3.67;;;21.60;27.90;;;;;;5095564;28;20386;-53
2022/03/08 08:25:07;;;;;;;13.60;3.50;;;21.80;27.60;;;;;;5096360;28;20020;-54
2022/03/08 08:27:33;;;;;;;7.97;3.17;;;21.90;27.40;;;;;;5096483;28;20021;-51
2022/03/08 08:30:00;;;;;;;8.20;3.30;;;22.20;27.40;;;;;;5095765;28;20016;-53
2022/03/08 08:32:28;;;;;;;13.77;3.13;;;22.20;27.10;;;;;;5093919;28;20128;-50
2022/03/08 08:34:54;;;;;;;10.05;3.58;;;22.10;27.00;;;;;;5094029;28;20089;-54
2022/03/08 08:37:20;;;;;;;8.02;3.75;;;22.10;26.60;;;;;;5095355;28;20520;-54
2022/03/08 08:39:46;;;;;;;12.32;3.65;;;22.00;26.30;;;;;;5095166;28;20016;-53
2022/03/08 08:42:11;;;;;;;8.48;3.60;;;21.90;25.70;;;;;;5095145;28;20063;-55
2022/03/08 08:44:38;;;;;;;7.18;4.47;;;21.90;25.60;;;;;;5094604;28;20096;-54
2022/03/08 08:47:04;;;;;;;7.55;4.20;;;21.80;25.00;;;;;;5093788;28;20103;-55
2022/03/08 08:49:30;;;;;;;6.97;3.95;;;21.80;25.10;;;;;;5060352;28;20084;-54
2022/03/08 08:51:56;;;;;;;10.38;4.10;;;21.70;24.80;;;;;;5094946;28;20034;-51
2022/03/08 08:54:22;;;;;;;8.25;3.88;;;21.60;24.90;;;;;;5095107;28;20095;-52
2022/03/08 08:56:48;;;;;;;9.13;4.07;;;21.60;24.70;;;;;;5094131;28;20019;-51
2022/03/08 08:59:14;;;;;;;10.98;4.40;;;21.50;24.70;;;;;;5076859;28;20036;-54
2022/03/08 09:01:40;;;;;;;7.78;4.50;;;21.60;24.40;;;;;;5094784;28;20692;-51
2022/03/08 09:04:06;;;;;;;12.60;4.18;;;21.60;24.20;;;;;;5094746;28;20023;-54
2022/03/08 09:06:31;;;;;;;11.82;4.57;;;21.50;24.70;;;;;;5094781;28;20327;-50
2022/03/08 09:08:58;;;;;;;11.13;4.78;;;21.60;24.20;;;;;;5094389;28;20485;-54
2022/03/08 09:11:24;;;;;;;7.50;5.22;;;21.50;23.50;;;;;;5094698;28;20106;-51
2022/03/08 09:13:50;;;;;;;7.50;5.15;;;20.30;22.30;;;;;;5093914;28;20085;-45
2022/03/08 09:16:16;;;;;;;10.02;5.22;;;19.40;23.10;;;;;;5091917;28;20546;-49
2022/03/08 09:18:43;;;;;;;14.27;5.60;;;19.30;23.50;;;;;;5093652;28;20052;-46
2022/03/08 09:21:10;;;;;;;12.60;4.68;;;19.60;24.60;;;;;;5075861;28;20069;-51
2022/03/08 09:23:37;;;;;;;15.73;5.22;;;19.90;24.50;;;;;;5094420;28;20073;-45
2022/03/08 09:26:03;;;;;;;11.73;5.30;;;20.10;24.80;;;;;;5076523;28;20026;-44
2022/03/08 09:28:29;;;;;;;10.68;4.97;;;20.20;24.80;;;;;;5093027;28;20016;-49
2022/03/08 09:30:55;;;;;;;12.05;4.85;;;20.40;24.50;;;;;;5093015;28;20061;-45
2022/03/08 09:33:21;;;;;;;8.82;5.03;;;20.60;24.60;;;;;;5094199;28;20012;-48
2022/03/08 09:35:46;;;;;;;8.18;4.35;;;20.70;24.40;;;;;;5093118;28;20028;-50
2022/03/08 09:38:13;;;;;;;11.13;4.55;;;20.90;24.60;;;;;;5093659;28;20490;-50
2022/03/08 09:40:39;;;;;;;9.48;4.15;;;21.00;24.60;;;;;;5094376;28;20020;-49
2022/03/08 09:43:05;;;;;;;9.45;4.68;;;21.10;24.80;;;;;;5093736;28;20024;-49
2022/03/08 09:45:32;;;;;;;14.98;4.72;;;21.10;24.80;;;;;;5093997;28;20024;-55
2022/03/08 09:47:58;;;;;;;8.07;4.57;;;21.10;24.30;;;;;;5093770;28;20061;-47
2022/03/08 09:50:24;;;;;;;5.70;4.40;;;21.20;25.10;;;;;;5093921;28;20366;-48
2022/03/08 09:52:49;;;;;;;9.75;4.50;;;21.20;24.40;;;;;;5093655;28;20547;-51
2022/03/08 09:55:16;;;;;;;6.55;4.25;;;21.30;24.50;;;;;;5075117;28;20081;-50
2022/03/08 09:57:42;;;;;;;7.78;4.20;;;21.30;24.50;;;;;;5092007;28;20478;-51
2022/03/08 10:00:10;;;;;;;10.10;4.30;;;21.40;24.80;;;;;;5090802;28;20050;-51
2022/03/08 10:02:47;;;;;;;11.65;4.63;;;21.40;24.70;;;;;;5092856;28;20698;-53
2022/03/08 10:05:16;;;;;;;11.90;4.68;;;21.40;24.80;;;;;;5092793;28;20032;-49
2022/03/08 10:08:22;;;;;;;11.02;4.53;;;21.40;24.90;;;;;;5091067;28;20016;-49
2022/03/08 10:10:55;;;;;;;9.40;4.30;;;21.40;24.60;;;;;;5090995;28;20048;-53
2022/03/08 10:13:24;;;;;;;12.50;5.35;;;21.20;24.30;;;;;;5090917;28;20483;-44
2022/03/08 10:16:12;;;;;;;14.60;5.22;;;21.00;24.30;;;;;;5074501;28;20205;-42
2022/03/08 10:18:43;;;;;;;16.48;4.40;;;21.10;25.30;;;;;;5092285;28;20052;-46
2022/03/08 10:21:32;;;;;;;7.63;3.63;;;21.40;25.80;;;;;;5092696;28;20008;-46
2022/03/08 10:24:17;;;;;;;14.07;4.20;;;21.70;26.20;;;;;;5092947;28;20016;-57
2022/03/08 10:26:45;;;;;;;14.30;4.25;;;21.90;26.70;;;;;;5092737;28;20113;-45
2022/03/08 10:29:11;;;;;;;19.08;4.43;;;22.20;27.10;;;;;;5091282;28;20069;-43
2022/03/08 10:31:37;;;;;;;26.77;4.25;;;22.30;27.50;;;;;;5091237;28;20024;-44
2022/03/08 10:34:15;;;;;;;7.43;3.50;;;22.40;27.60;;;;;;5091863;28;20489;-47
2022/03/08 10:36:42;;;;;;;10.88;3.65;;;22.60;27.60;;;;;;5090956;28;20020;-50
2022/03/08 10:39:10;;;;;;;8.05;3.08;;;22.70;27.80;;;;;;5091253;28;20536;-49
2022/03/08 10:41:47;;;;;;;14.38;3.80;;;22.80;28.30;;;;;;5092134;28;20024;-52
2022/03/08 10:44:15;;;;;;;10.48;3.45;;;22.90;28.00;;;;;;5092568;28;20054;-50
2022/03/08 10:46:40;;;;;;;7.32;3.13;;;22.90;28.30;;;;;;5091762;28;20347;-46
2022/03/08 10:49:11;;;;;;;12.10;3.47;;;22.90;28.80;;;;;;5090608;28;20553;-48
2022/03/08 10:51:36;;;;;;;10.88;3.08;;;23.00;28.90;;;;;;5090752;28;20020;-51
2022/03/08 10:54:14;;;;;;;8.25;3.00;;;23.00;29.00;;;;;;5091979;28;20081;-52
2022/03/08 10:56:44;;;;;;;6.28;2.88;;;23.00;29.50;;;;;;5091871;28;20095;-49
2022/03/08 10:59:12;;;;;;;10.85;3.55;;;23.10;29.60;;;;;;5092606;28;20020;-50
2022/03/08 11:01:41;;;;;;;15.07;4.78;;;22.90;28.80;;;;;;5092806;28;20069;-48
2022/03/08 11:04:15;;;;;;;15.68;4.32;;;22.60;26.50;;;;;;5092720;28;20091;-48
2022/03/08 11:06:42;;;;;;;20.05;4.93;;;22.50;26.80;;;;;;5091700;28;20031;-46
2022/03/08 11:09:08;;;;;;;17.92;4.57;;;22.40;27.10;;;;;;5092219;28;20095;-49
2022/03/08 11:11:34;;;;;;;14.75;3.40;;;22.40;27.30;;;;;;5091877;28;20024;-51
2022/03/08 11:14:00;;;;;;;13.15;4.07;;;22.40;27.30;;;;;;5093009;28;20088;-51
2022/03/08 11:16:26;;;;;;;11.55;3.42;;;22.50;27.00;;;;;;5093194;28;20028;-49
2022/03/08 11:18:52;;;;;;;8.55;3.22;;;22.50;26.80;;;;;;5075385;28;20125;-51
2022/03/08 11:21:18;;;;;;;11.93;3.45;;;22.50;27.00;;;;;;5092347;28;20368;-49
2022/03/08 11:23:45;;;;;;;11.43;4.10;;;22.50;27.20;;;;;;5092695;28;20107;-48
2022/03/08 11:26:14;;;;;;;10.77;3.30;;;22.50;27.10;;;;;;5092482;28;20530;-49
2022/03/08 11:28:43;;;;;;;10.75;3.22;;;22.60;27.10;;;;;;5092330;28;20073;-52
2022/03/08 11:31:09;;;;;;;5.97;3.38;;;22.50;27.10;;;;;;5092168;28;20458;-50
2022/03/08 11:33:35;;;;;;;7.65;2.75;;;22.50;26.90;;;;;;5076454;28;20023;-45
2022/03/08 11:36:03;;;;;;;10.30;3.33;;;22.50;26.80;;;;;;5094486;28;20020;-44
2022/03/08 11:38:29;;;;;;;7.32;3.35;;;22.60;27.00;;;;;;5093200;28;20058;-47
2022/03/08 11:40:57;;;;;;;24.35;4.95;;;22.60;27.20;;;;;;5091501;28;20040;-47
2022/03/08 11:43:45;;;;;;;14.25;2.80;;;22.60;27.50;;;;;;5091373;28;20443;-43
2022/03/08 11:46:16;;;;;;;12.93;3.15;;;22.70;27.60;;;;;;5096053;28;20024;-46
2022/03/08 11:48:52;;;;;;;18.87;4.10;;;22.60;27.60;;;;;;5096073;28;20016;-45
2022/03/08 11:51:18;;;;;;;17.50;4.00;;;22.50;27.40;;;;;;5094691;28;20020;-45
2022/03/08 11:53:47;;;;;;;12.43;3.85;;;22.50;27.10;;;;;;5096272;28;20081;-49
2022/03/08 11:56:20;;;;;;;10.63;3.80;;;22.50;25.60;;;;;;5095814;28;20074;-47
2022/03/08 11:58:47;;;;;;;10.50;4.03;;;22.50;25.30;;;;;;5094592;28;20502;-49
2022/03/08 12:01:27;;;;;;;8.93;4.35;;;22.50;25.10;;;;;;5096226;28;20035;-46
2022/03/08 12:03:55;;;;;;;11.05;4.60;;;22.50;25.00;;;;;;5096189;28;20431;-47
2022/03/08 12:06:31;;;;;;;7.97;4.45;;;22.50;24.80;;;;;;5094759;28;20099;-49
2022/03/08 12:09:15;;;;;;;10.73;4.38;;;22.60;24.60;;;;;;5095790;28;20008;-47
2022/03/08 12:11:42;;;;;;;11.20;4.93;;;22.50;24.90;;;;;;5095682;28;20028;-49
2022/03/08 12:14:32;;;;;;;7.40;4.65;;;22.50;24.20;;;;;;5095537;28;20008;-50
2022/03/08 12:17:08;;;;;;;10.70;4.93;;;22.50;24.90;;;;;;5085997;28;20020;-48
2022/03/08 12:19:38;;;;;;;7.30;5.38;;;22.50;24.00;;;;;;5095208;28;20032;-52
2022/03/08 12:22:12;;;;;;;7.82;5.18;;;22.50;23.70;;;;;;5094385;28;20027;-47
2022/03/08 12:24:40;;;;;;;7.28;5.00;;;22.60;23.70;;;;;;5094272;28;20013;-51
2022/03/08 12:27:08;;;;;;;11.57;5.00;;;22.60;23.70;;;;;;5095075;28;20047;-47
2022/03/08 12:29:55;;;;;;;18.85;5.00;;;22.60;23.90;;;;;;5095240;28;20506;-47
2022/03/08 12:32:27;;;;;;;10.10;5.38;;;22.60;23.50;;;;;;5084502;28;20024;-50
2022/03/08 12:34:58;;;;;;;6.63;4.57;;;22.60;23.60;;;;;;5093636;28;20030;-50
2022/03/08 12:37:30;;;;;;;13.82;5.43;;;22.50;23.50;;;;;;5093408;28;20088;-52
2022/03/08 12:40:15;;;;;;;12.90;5.45;;;22.60;23.90;;;;;;5093279;28;20456;-52
2022/03/08 12:42:58;;;;;;;21.90;5.40;;;22.40;23.60;;;;;;5094328;28;20039;-53
2022/03/08 12:45:31;;;;;;;17.25;5.55;;;22.30;24.50;;;;;;5093910;28;20024;-49